Montrose, West Virginia
Current Conditions -  °F | °C
As of 5:51 PM on Monday 24 Nov 2014 (Local Time) from KEKN Reporting Station
Overcast Overcast  
Wind Chill: 65°   Ceiling: 7000
Heat Index: 65°   Visibility: 10mi
Dew Point: 40°   Wind: 10mph
Humidity: 40%   Direction: 240°WSW
Pressure: 29.69"   Gusts: 28mph
Location:  39.07°N, 79.81°W
Report Text: KEKN 242251Z AUTO 24009G24KT 10SM BKN070 OVC085 18/04 A2969 RMK AO2 SLP047 T01830044 TSNO
Loading
Personal Weather Stations






























Interactive Weather Map New forecast layout! Learn more

10-Day Weather Forecast

Advertisements
Track Severe Weather on mobile